createdAt,value
2018-05-25T00:00:00.814Z,27.20
2018-05-25T00:00:37.561Z,24.60
2018-05-25T00:01:14.858Z,25.60
2018-05-25T00:01:50.257Z,24.80
2018-05-25T00:02:25.688Z,24.30
2018-05-25T00:03:00.979Z,27.60
2018-05-25T00:03:36.311Z,27.70
2018-05-25T00:04:11.808Z,26.00
2018-05-25T00:04:47.255Z,26.50
2018-05-25T00:05:22.982Z,28.40
2018-05-25T00:05:59.072Z,28.30
2018-05-25T00:06:34.473Z,27.10
2018-05-25T00:07:09.807Z,28.10
2018-05-25T00:07:45.291Z,28.70
2018-05-25T00:08:20.829Z,30.80
2018-05-25T00:08:56.224Z,27.60
2018-05-25T00:09:31.479Z,27.20
2018-05-25T00:10:06.999Z,32.70
2018-05-25T00:10:43.781Z,31.20
2018-05-25T00:11:19.213Z,29.00
2018-05-25T00:11:54.245Z,29.30
2018-05-25T00:12:29.648Z,26.70
2018-05-25T00:13:04.979Z,25.60
2018-05-25T00:13:40.479Z,24.40
2018-05-25T00:14:15.798Z,28.20
2018-05-25T00:14:51.004Z,25.50
2018-05-25T00:15:26.477Z,25.70
2018-05-25T00:16:01.997Z,27.70
2018-05-25T00:16:38.898Z,28.40
2018-05-25T00:17:14.424Z,26.40
2018-05-25T00:17:49.654Z,29.70
2018-05-25T00:18:24.756Z,29.80
2018-05-25T00:19:00.506Z,27.20
2018-05-25T00:19:36.011Z,29.90
2018-05-25T00:20:11.449Z,28.10
2018-05-25T00:20:49.503Z,27.30
2018-05-25T00:21:25.046Z,29.60
2018-05-25T00:22:00.546Z,27.80
2018-05-25T00:22:36.218Z,27.30
2018-05-25T00:23:11.506Z,24.80
2018-05-25T00:23:47.452Z,29.80
2018-05-25T00:24:22.867Z,28.30
2018-05-25T00:24:58.401Z,27.00
2018-05-25T00:25:33.753Z,27.10
2018-05-25T00:26:09.880Z,25.90
2018-05-25T00:26:46.181Z,27.60
2018-05-25T00:27:21.560Z,29.00
2018-05-25T00:27:57.214Z,29.10
2018-05-25T00:28:32.674Z,27.90
2018-05-25T00:29:07.963Z,26.50
2018-05-25T00:29:43.513Z,29.60
2018-05-25T00:30:18.961Z,27.90
2018-05-25T00:30:56.531Z,29.50
2018-05-25T00:31:31.838Z,28.30
2018-05-25T00:32:07.188Z,26.30
2018-05-25T00:32:44.499Z,29.30
2018-05-25T00:33:19.744Z,29.40
2018-05-25T00:33:55.062Z,29.60
2018-05-25T00:34:30.395Z,26.10
2018-05-25T00:35:05.705Z,26.60
2018-05-25T00:35:41.751Z,26.60
2018-05-25T00:36:17.052Z,26.90
2018-05-25T00:36:52.693Z,28.80
2018-05-25T00:37:28.673Z,28.80
2018-05-25T00:38:03.628Z,26.30
2018-05-25T00:38:38.929Z,29.20
2018-05-25T00:39:14.479Z,31.00
2018-05-25T00:39:50.872Z,28.90
2018-05-25T00:40:26.234Z,26.90
2018-05-25T00:41:02.244Z,26.20
2018-05-25T00:41:37.478Z,29.60
2018-05-25T00:42:12.785Z,27.00
2018-05-25T00:42:48.134Z,24.60
2018-05-25T00:43:23.360Z,24.70
2018-05-25T00:43:58.692Z,25.20
2018-05-25T00:44:34.085Z,27.70
2018-05-25T00:45:09.315Z,29.20
2018-05-25T00:45:44.461Z,28.30
2018-05-25T00:46:19.990Z,25.40
2018-05-25T00:46:55.202Z,25.80
2018-05-25T00:47:30.535Z,26.10
2018-05-25T00:48:05.963Z,29.10
2018-05-25T00:48:41.510Z,26.90
2018-05-25T00:49:18.830Z,25.10
2018-05-25T00:49:54.062Z,25.60
2018-05-25T00:50:29.317Z,26.40
2018-05-25T00:51:04.524Z,26.40
2018-05-25T00:51:40.041Z,26.20
2018-05-25T00:52:15.477Z,26.90
2018-05-25T00:52:51.226Z,26.80
2018-05-25T00:53:26.566Z,27.10
2018-05-25T00:54:02.189Z,27.10
2018-05-25T00:54:37.518Z,26.80
2018-05-25T00:55:12.909Z,26.30
2018-05-25T00:55:49.864Z,27.60
2018-05-25T00:56:24.983Z,27.10
2018-05-25T00:57:00.184Z,28.40
2018-05-25T00:57:36.538Z,26.20
2018-05-25T00:58:11.971Z,25.20
2018-05-25T00:58:49.975Z,26.60
2018-05-25T00:59:25.222Z,26.70
2018-05-25T01:00:00.648Z,27.40
2018-05-25T01:00:36.683Z,24.60
2018-05-25T01:01:12.770Z,26.10
2018-05-25T01:01:50.307Z,24.90
2018-05-25T01:02:25.740Z,28.40
2018-05-25T01:03:01.094Z,29.80
2018-05-25T01:03:37.522Z,28.10
2018-05-25T01:04:12.876Z,26.80
2018-05-25T01:04:48.394Z,25.60
2018-05-25T01:05:24.167Z,25.00
2018-05-25T01:06:00.173Z,26.60
2018-05-25T01:06:35.819Z,25.30
2018-05-25T01:07:11.438Z,23.90
2018-05-25T01:07:47.101Z,24.60
2018-05-25T01:08:22.538Z,24.90
2018-05-25T01:08:57.963Z,24.30
2018-05-25T01:09:33.115Z,27.10
2018-05-25T01:10:08.460Z,30.60
2018-05-25T01:10:47.514Z,28.80
2018-05-25T01:11:23.150Z,28.00
2018-05-25T01:12:02.250Z,29.90
2018-05-25T01:12:38.565Z,27.80
2018-05-25T01:13:14.261Z,25.30
2018-05-25T01:13:49.589Z,26.40
2018-05-25T01:14:25.122Z,26.00
2018-05-25T01:15:00.472Z,25.00
2018-05-25T01:15:36.293Z,27.20
2018-05-25T01:16:11.812Z,27.70
2018-05-25T01:16:49.042Z,26.80
2018-05-25T01:17:24.363Z,29.90
2018-05-25T01:17:59.707Z,26.80
2018-05-25T01:18:35.319Z,26.50
2018-05-25T01:19:10.924Z,29.10
2018-05-25T01:19:46.390Z,30.80
2018-05-25T01:20:21.453Z,29.20
2018-05-25T01:20:57.069Z,28.10
2018-05-25T01:21:32.777Z,27.40
2018-05-25T01:22:08.103Z,27.50
2018-05-25T01:22:46.108Z,28.50
2018-05-25T01:23:21.322Z,26.50
2018-05-25T01:23:56.574Z,27.70
2018-05-25T01:24:32.010Z,27.80
2018-05-25T01:25:07.317Z,24.50
2018-05-25T01:25:42.604Z,26.80
2018-05-25T01:26:18.427Z,28.40
2018-05-25T01:26:53.776Z,25.90
2018-05-25T01:27:29.374Z,24.60
2018-05-25T01:28:05.321Z,26.50
2018-05-25T01:28:41.049Z,27.40
2018-05-25T01:29:16.176Z,29.80
2018-05-25T01:29:51.372Z,33.20
2018-05-25T01:30:26.730Z,26.10
2018-05-25T01:31:02.306Z,27.80
2018-05-25T01:31:37.670Z,27.80
2018-05-25T01:32:16.096Z,25.90
2018-05-25T01:32:52.192Z,27.90
2018-05-25T01:33:27.791Z,26.90
2018-05-25T01:34:05.155Z,25.90
2018-05-25T01:34:44.643Z,29.80
2018-05-25T01:35:19.939Z,30.40
2018-05-25T01:35:55.512Z,27.30
2018-05-25T01:36:30.766Z,27.10
2018-05-25T01:37:06.164Z,27.70
2018-05-25T01:37:41.418Z,29.70
2018-05-25T01:38:16.813Z,28.30
2018-05-25T01:38:52.045Z,26.00
2018-05-25T01:39:27.299Z,28.10
2018-05-25T01:40:02.821Z,29.00
2018-05-25T01:40:38.755Z,27.60
2018-05-25T01:41:14.078Z,28.00
2018-05-25T01:41:49.484Z,31.30
2018-05-25T01:42:24.745Z,29.50
2018-05-25T01:43:00.347Z,29.00
2018-05-25T01:43:35.573Z,28.60
2018-05-25T01:44:10.673Z,29.50
2018-05-25T01:44:45.943Z,27.70
2018-05-25T01:45:21.473Z,28.90
2018-05-25T01:45:59.514Z,28.00
2018-05-25T01:46:34.813Z,29.90
2018-05-25T01:47:10.043Z,29.30
2018-05-25T01:47:45.264Z,32.60
2018-05-25T01:48:20.900Z,30.70
2018-05-25T01:48:56.214Z,29.90
2018-05-25T01:49:31.363Z,27.20
2018-05-25T01:50:06.796Z,26.40
2018-05-25T01:50:42.056Z,30.90
2018-05-25T01:51:17.471Z,30.30
2018-05-25T01:51:52.726Z,34.10
2018-05-25T01:52:27.848Z,31.80
2018-05-25T01:53:03.402Z,29.60
2018-05-25T01:53:38.619Z,28.70
2018-05-25T01:54:13.977Z,29.50
2018-05-25T01:54:49.481Z,28.40
2018-05-25T01:55:24.842Z,25.00
2018-05-25T01:56:00.240Z,29.00
2018-05-25T01:56:35.586Z,26.60
2018-05-25T01:57:10.896Z,26.80
2018-05-25T01:57:46.634Z,28.20
2018-05-25T01:58:22.034Z,31.00
2018-05-25T01:58:59.472Z,31.50
2018-05-25T01:59:35.093Z,29.90
2018-05-25T02:00:10.770Z,25.40
2018-05-25T02:00:50.004Z,27.70
2018-05-25T02:01:27.025Z,26.70
2018-05-25T02:02:03.952Z,30.70
2018-05-25T02:02:40.653Z,29.40
2018-05-25T02:03:16.044Z,26.50
2018-05-25T02:03:51.294Z,28.60
2018-05-25T02:04:26.689Z,28.60
2018-05-25T02:05:04.014Z,29.70
2018-05-25T02:05:41.939Z,33.40
2018-05-25T02:06:17.463Z,34.10
2018-05-25T02:06:52.897Z,32.90
2018-05-25T02:07:28.035Z,29.30
2018-05-25T02:08:03.427Z,29.10
2018-05-25T02:08:38.882Z,27.10
2018-05-25T02:09:14.342Z,29.80
2018-05-25T02:09:50.079Z,30.90
2018-05-25T02:10:25.638Z,30.10
2018-05-25T02:11:04.083Z,34.00
2018-05-25T02:11:39.719Z,32.10
2018-05-25T02:12:15.060Z,34.20
2018-05-25T02:12:50.671Z,33.30
2018-05-25T02:13:26.126Z,37.00
2018-05-25T02:14:01.549Z,39.90
2018-05-25T02:14:37.081Z,33.50
2018-05-25T02:15:12.506Z,33.30
2018-05-25T02:15:47.861Z,35.70
2018-05-25T02:16:23.374Z,33.40
2018-05-25T02:16:59.007Z,31.70
2018-05-25T02:17:34.437Z,34.30
2018-05-25T02:18:10.034Z,30.70
2018-05-25T02:18:45.130Z,29.40
2018-05-25T02:19:20.550Z,33.90
2018-05-25T02:19:55.965Z,35.40
2018-05-25T02:20:31.549Z,34.00
2018-05-25T02:21:08.747Z,30.50
2018-05-25T02:21:43.886Z,34.30
2018-05-25T02:22:19.508Z,34.60
2018-05-25T02:22:55.081Z,34.70
2018-05-25T02:23:30.483Z,31.90
2018-05-25T02:24:05.658Z,30.50
2018-05-25T02:24:42.065Z,33.60
2018-05-25T02:25:17.809Z,35.00
2018-05-25T02:25:53.140Z,36.40
2018-05-25T02:26:29.255Z,35.50
2018-05-25T02:27:04.561Z,33.30
2018-05-25T02:27:40.420Z,33.70
2018-05-25T02:28:15.814Z,35.00
2018-05-25T02:28:52.242Z,35.30
2018-05-25T02:29:27.446Z,34.30
2018-05-25T02:30:02.971Z,33.80
2018-05-25T02:30:40.116Z,34.40
2018-05-25T02:31:15.353Z,36.00
2018-05-25T02:31:50.965Z,35.50
2018-05-25T02:32:25.992Z,34.20
2018-05-25T02:33:01.317Z,33.80
2018-05-25T02:33:36.953Z,35.10
2018-05-25T02:34:12.394Z,33.10
2018-05-25T02:34:49.217Z,31.10
2018-05-25T02:35:24.738Z,30.60
2018-05-25T02:36:00.005Z,32.70
2018-05-25T02:36:36.595Z,33.80
2018-05-25T02:37:11.839Z,34.70
2018-05-25T02:37:48.069Z,34.80
2018-05-25T02:38:23.589Z,35.90
2018-05-25T02:38:58.779Z,33.50
2018-05-25T02:39:34.126Z,31.90
2018-05-25T02:40:09.828Z,32.30
2018-05-25T02:40:51.515Z,39.00
2018-05-25T02:41:26.903Z,36.20
2018-05-25T02:42:02.161Z,32.80
2018-05-25T02:42:40.177Z,34.90
2018-05-25T02:43:15.693Z,29.80
2018-05-25T02:43:51.495Z,34.70
2018-05-25T02:44:30.368Z,40.20
2018-05-25T02:45:05.810Z,31.70
2018-05-25T02:45:42.159Z,30.70
2018-05-25T02:46:17.551Z,32.00
2018-05-25T02:46:52.904Z,32.40
2018-05-25T02:47:29.692Z,29.40
2018-05-25T02:48:05.215Z,31.30
2018-05-25T02:48:43.019Z,33.00
2018-05-25T02:49:18.181Z,33.20
2018-05-25T02:49:53.365Z,30.60
2018-05-25T02:50:28.722Z,34.00
2018-05-25T02:51:04.205Z,33.40
2018-05-25T02:51:39.750Z,29.20
2018-05-25T02:52:17.056Z,29.00
2018-05-25T02:52:54.186Z,31.00
2018-05-25T02:53:29.492Z,31.70
2018-05-25T02:54:04.950Z,30.80
2018-05-25T02:54:42.368Z,34.00
2018-05-25T02:55:17.707Z,38.20
2018-05-25T02:55:53.138Z,38.10
2018-05-25T02:56:28.871Z,31.10
2018-05-25T02:57:04.238Z,33.20
2018-05-25T02:57:40.450Z,33.70
2018-05-25T02:58:15.771Z,31.50
2018-05-25T02:58:52.539Z,34.20
2018-05-25T02:59:27.725Z,34.60
2018-05-25T03:00:03.346Z,34.60
2018-05-25T03:00:40.482Z,36.60
2018-05-25T03:01:15.916Z,37.70
2018-05-25T03:01:53.427Z,35.10
2018-05-25T03:02:29.010Z,34.40
2018-05-25T03:03:04.443Z,31.00
2018-05-25T03:03:40.399Z,32.00
2018-05-25T03:04:15.698Z,31.50
2018-05-25T03:04:51.140Z,31.30
2018-05-25T03:05:26.397Z,31.40
2018-05-25T03:06:01.785Z,33.60
2018-05-25T03:06:36.993Z,32.40
2018-05-25T03:07:12.425Z,32.90
2018-05-25T03:07:47.707Z,35.10
2018-05-25T03:08:22.951Z,35.70
2018-05-25T03:08:58.547Z,35.90
2018-05-25T03:09:33.776Z,39.00
2018-05-25T03:10:08.955Z,37.90
2018-05-25T03:10:44.327Z,36.20
2018-05-25T03:11:19.548Z,34.20
2018-05-25T03:11:54.878Z,32.00
2018-05-25T03:12:30.204Z,34.70
2018-05-25T03:13:05.458Z,37.20
2018-05-25T03:13:40.856Z,35.50
2018-05-25T03:14:16.491Z,34.80
2018-05-25T03:14:52.125Z,35.90
2018-05-25T03:15:27.594Z,35.40
2018-05-25T03:16:02.812Z,35.20
2018-05-25T03:16:38.153Z,36.20
2018-05-25T03:17:13.549Z,39.30
2018-05-25T03:17:51.506Z,39.50
2018-05-25T03:18:27.025Z,35.50
2018-05-25T03:19:02.364Z,34.80
2018-05-25T03:19:37.769Z,40.70
2018-05-25T03:20:13.275Z,41.40
2018-05-25T03:20:49.808Z,36.70
2018-05-25T03:21:25.038Z,35.90
2018-05-25T03:22:00.372Z,36.70
2018-05-25T03:22:35.987Z,34.90
2018-05-25T03:23:11.597Z,34.80
2018-05-25T03:23:47.134Z,35.20
2018-05-25T03:24:22.337Z,43.20
2018-05-25T03:24:58.604Z,44.90
2018-05-25T03:25:34.021Z,38.90
2018-05-25T03:26:09.357Z,38.00
2018-05-25T03:26:44.525Z,35.00
2018-05-25T03:27:20.058Z,34.90
2018-05-25T03:27:55.539Z,36.30
2018-05-25T03:28:31.005Z,34.60
2018-05-25T03:29:06.585Z,35.20
2018-05-25T03:29:42.445Z,38.10
2018-05-25T03:30:17.576Z,39.10
2018-05-25T03:30:55.347Z,38.50
2018-05-25T03:31:30.561Z,38.20
2018-05-25T03:32:05.929Z,40.00
2018-05-25T03:32:41.312Z,36.10
2018-05-25T03:33:16.768Z,34.90
2018-05-25T03:33:52.066Z,43.60
2018-05-25T03:34:27.422Z,44.70
2018-05-25T03:35:02.732Z,35.50
2018-05-25T03:35:38.421Z,36.20
2018-05-25T03:36:14.552Z,39.90
2018-05-25T03:36:49.787Z,38.40
2018-05-25T03:37:25.187Z,34.60
2018-05-25T03:38:00.624Z,35.70
2018-05-25T03:38:36.232Z,37.60
2018-05-25T03:39:11.557Z,39.30
2018-05-25T03:39:47.099Z,39.00
2018-05-25T03:40:22.488Z,37.10
2018-05-25T03:40:58.195Z,40.20
2018-05-25T03:41:33.644Z,42.30
2018-05-25T03:42:09.137Z,45.20
2018-05-25T03:42:44.775Z,44.80
2018-05-25T03:43:20.483Z,39.90
2018-05-25T03:43:55.917Z,40.80
2018-05-25T03:44:31.328Z,38.00
2018-05-25T03:45:06.670Z,41.40
2018-05-25T03:45:43.434Z,39.00
2018-05-25T03:46:18.650Z,38.60
2018-05-25T03:46:54.070Z,39.50
2018-05-25T03:47:29.504Z,40.70
2018-05-25T03:48:04.813Z,42.40
2018-05-25T03:48:40.231Z,40.90
2018-05-25T03:49:15.546Z,36.90
2018-05-25T03:49:50.897Z,37.70
2018-05-25T03:50:26.143Z,36.70
2018-05-25T03:51:01.561Z,36.70
2018-05-25T03:51:36.960Z,40.80
2018-05-25T03:52:12.920Z,38.10
2018-05-25T03:52:48.026Z,35.20
2018-05-25T03:53:23.768Z,37.10
2018-05-25T03:53:58.995Z,42.60
2018-05-25T03:54:34.633Z,38.20
2018-05-25T03:55:09.955Z,38.90
2018-05-25T03:55:45.409Z,39.20
2018-05-25T03:56:20.694Z,40.70
2018-05-25T03:56:55.925Z,38.80
2018-05-25T03:57:31.029Z,40.90
2018-05-25T03:58:06.069Z,44.70
2018-05-25T03:58:41.800Z,43.30
2018-05-25T03:59:17.217Z,38.60
2018-05-25T03:59:54.055Z,40.30
2018-05-25T04:00:29.519Z,40.50
2018-05-25T04:01:04.818Z,38.10
2018-05-25T04:01:43.639Z,38.90
2018-05-25T04:02:18.736Z,37.40
2018-05-25T04:02:54.072Z,39.70
2018-05-25T04:03:29.394Z,41.00
2018-05-25T04:04:06.632Z,39.80
2018-05-25T04:04:42.230Z,41.20
2018-05-25T04:05:18.712Z,37.00
2018-05-25T04:05:54.127Z,41.70
2018-05-25T04:06:29.595Z,41.50
2018-05-25T04:07:05.799Z,39.10
2018-05-25T04:07:41.373Z,37.40
2018-05-25T04:08:16.716Z,41.20
2018-05-25T04:08:51.947Z,40.90
2018-05-25T04:09:27.268Z,40.10
2018-05-25T04:10:02.794Z,37.90
2018-05-25T04:10:38.124Z,38.30
2018-05-25T04:11:13.463Z,37.10
2018-05-25T04:11:52.169Z,34.90
2018-05-25T04:12:27.303Z,34.00
2018-05-25T04:13:03.155Z,36.60
2018-05-25T04:13:38.492Z,38.70
2018-05-25T04:14:13.935Z,38.70
2018-05-25T04:14:49.273Z,38.60
2018-05-25T04:15:24.315Z,38.00
2018-05-25T04:15:59.946Z,39.70
2018-05-25T04:16:35.344Z,38.40
2018-05-25T04:17:10.777Z,37.70
2018-05-25T04:17:46.567Z,39.70
2018-05-25T04:18:21.914Z,37.50
2018-05-25T04:18:57.167Z,35.60
2018-05-25T04:19:32.393Z,36.40
2018-05-25T04:20:08.042Z,38.60
2018-05-25T04:20:45.582Z,39.60
2018-05-25T04:21:20.869Z,39.00
2018-05-25T04:21:56.392Z,36.80
2018-05-25T04:22:31.781Z,36.00
2018-05-25T04:23:07.241Z,38.00
2018-05-25T04:23:42.837Z,37.40
2018-05-25T04:24:18.264Z,34.80
2018-05-25T04:24:54.029Z,34.20
2018-05-25T04:25:29.609Z,37.00
2018-05-25T04:26:04.911Z,39.20
2018-05-25T04:26:40.340Z,37.20
2018-05-25T04:27:15.748Z,36.70
2018-05-25T04:27:54.093Z,37.20
2018-05-25T04:28:29.387Z,36.50
2018-05-25T04:29:05.044Z,35.40
2018-05-25T04:29:40.445Z,35.60
2018-05-25T04:30:15.678Z,35.80
2018-05-25T04:30:50.900Z,37.50
2018-05-25T04:31:26.155Z,37.60
2018-05-25T04:32:01.556Z,34.70
2018-05-25T04:32:37.180Z,36.30
2018-05-25T04:33:12.419Z,35.20
2018-05-25T04:33:47.799Z,35.90
2018-05-25T04:34:23.396Z,37.30
2018-05-25T04:34:58.641Z,37.10
2018-05-25T04:35:34.416Z,39.70
2018-05-25T04:36:09.772Z,38.70
2018-05-25T04:36:46.957Z,34.70
2018-05-25T04:37:22.113Z,36.10
2018-05-25T04:37:59.214Z,37.40
2018-05-25T04:38:36.522Z,38.10
2018-05-25T04:39:11.728Z,35.40
2018-05-25T04:39:49.872Z,38.00
2018-05-25T04:40:28.617Z,37.20
2018-05-25T04:41:03.741Z,33.10
2018-05-25T04:41:39.715Z,32.60
2018-05-25T04:42:14.970Z,33.50
2018-05-25T04:42:51.569Z,35.60
2018-05-25T04:43:26.705Z,36.10
2018-05-25T04:44:02.043Z,38.30
2018-05-25T04:44:37.468Z,38.30
2018-05-25T04:45:13.104Z,35.80
2018-05-25T04:45:48.660Z,37.10
2018-05-25T04:46:24.060Z,36.50
2018-05-25T04:46:59.400Z,32.20
2018-05-25T04:47:35.120Z,34.20
2018-05-25T04:48:11.645Z,34.20
2018-05-25T04:48:49.343Z,34.40
2018-05-25T04:49:24.973Z,37.10
2018-05-25T04:50:01.557Z,30.90
2018-05-25T04:50:37.066Z,30.80
2018-05-25T04:51:12.354Z,34.10
2018-05-25T04:51:47.616Z,37.60
2018-05-25T04:52:22.989Z,36.10
2018-05-25T04:52:59.694Z,33.00
2018-05-25T04:53:35.726Z,30.70
2018-05-25T04:54:12.359Z,31.10
2018-05-25T04:54:47.952Z,32.20
2018-05-25T04:55:23.421Z,32.70
2018-05-25T04:55:59.933Z,32.20
2018-05-25T04:56:36.153Z,30.30
2018-05-25T04:57:13.283Z,29.30
2018-05-25T04:57:49.218Z,34.40
2018-05-25T04:58:24.625Z,32.60
2018-05-25T04:59:01.360Z,34.50
2018-05-25T04:59:37.107Z,32.50
2018-05-25T05:00:12.710Z,32.30
2018-05-25T05:00:50.243Z,34.00
2018-05-25T05:01:25.697Z,36.10
2018-05-25T05:02:01.231Z,33.20
2018-05-25T05:02:36.649Z,32.40
2018-05-25T05:03:11.939Z,33.30
2018-05-25T05:03:48.056Z,32.30
2018-05-25T05:04:23.071Z,32.50
2018-05-25T05:05:02.456Z,35.00
2018-05-25T05:05:37.625Z,37.40
2018-05-25T05:06:12.825Z,34.20
2018-05-25T05:06:48.722Z,33.60
2018-05-25T05:07:23.936Z,33.30
2018-05-25T05:07:59.330Z,33.70
2018-05-25T05:08:34.863Z,33.60
2018-05-25T05:09:10.461Z,34.30
2018-05-25T05:09:46.509Z,35.50
2018-05-25T05:10:22.139Z,36.40
2018-05-25T05:11:00.694Z,34.60
2018-05-25T05:11:37.300Z,35.90
2018-05-25T05:12:12.509Z,34.50
2018-05-25T05:12:47.694Z,34.60
2018-05-25T05:13:23.221Z,34.00
2018-05-25T05:13:58.816Z,35.20
2018-05-25T05:14:34.456Z,34.80
2018-05-25T05:15:09.978Z,33.50
2018-05-25T05:15:45.928Z,32.70
2018-05-25T05:16:23.528Z,33.70
2018-05-25T05:16:58.664Z,34.60
2018-05-25T05:17:34.056Z,38.50
2018-05-25T05:18:09.375Z,37.20
2018-05-25T05:18:44.908Z,33.70
2018-05-25T05:19:20.168Z,32.70
2018-05-25T05:19:58.497Z,33.40
2018-05-25T05:20:33.533Z,32.30
2018-05-25T05:21:09.574Z,30.80
2018-05-25T05:21:44.916Z,32.90
2018-05-25T05:22:21.121Z,38.80
2018-05-25T05:22:57.897Z,39.10
2018-05-25T05:23:33.263Z,35.00
2018-05-25T05:24:08.702Z,31.90
2018-05-25T05:24:44.216Z,34.00
2018-05-25T05:25:20.197Z,33.50
2018-05-25T05:25:55.443Z,31.80
2018-05-25T05:26:30.815Z,32.00
2018-05-25T05:27:06.423Z,34.10
2018-05-25T05:27:41.781Z,33.90
2018-05-25T05:28:17.524Z,33.10
2018-05-25T05:28:52.566Z,33.00
2018-05-25T05:29:27.798Z,32.70
2018-05-25T05:30:06.323Z,34.20
2018-05-25T05:30:43.167Z,33.20
2018-05-25T05:31:21.599Z,31.10
2018-05-25T05:31:56.727Z,32.10
2018-05-25T05:32:32.584Z,33.10
2018-05-25T05:33:11.204Z,32.40
2018-05-25T05:33:48.831Z,32.60
2018-05-25T05:34:24.021Z,33.70
2018-05-25T05:35:01.157Z,36.40
2018-05-25T05:35:36.890Z,36.40
2018-05-25T05:36:12.615Z,33.60
2018-05-25T05:36:47.916Z,34.40
2018-05-25T05:37:23.354Z,30.70
2018-05-25T05:38:01.045Z,32.30
2018-05-25T05:38:37.798Z,35.90
2018-05-25T05:39:12.977Z,33.00
2018-05-25T05:39:50.149Z,29.80
2018-05-25T05:40:25.588Z,31.20
2018-05-25T05:41:04.161Z,34.70
2018-05-25T05:41:42.591Z,34.00
2018-05-25T05:42:18.020Z,32.70
2018-05-25T05:42:53.647Z,33.10
2018-05-25T05:43:29.103Z,34.40
2018-05-25T05:44:05.011Z,35.00
2018-05-25T05:44:43.710Z,31.60
2018-05-25T05:45:21.199Z,30.40
2018-05-25T05:45:56.826Z,30.70
2018-05-25T05:46:32.055Z,31.50
2018-05-25T05:47:11.082Z,34.50
2018-05-25T05:47:50.097Z,31.60
2018-05-25T05:48:25.736Z,32.30
2018-05-25T05:49:05.053Z,30.50
2018-05-25T05:51:41.738Z,29.10
2018-05-25T05:52:17.308Z,30.70
2018-05-25T05:52:52.622Z,33.40
2018-05-25T05:53:29.754Z,28.40
2018-05-25T05:54:05.349Z,25.40
2018-05-25T05:54:46.976Z,25.30
2018-05-25T05:55:22.298Z,25.20
2018-05-25T05:56:00.244Z,27.10
2018-05-25T05:56:38.030Z,27.90
2018-05-25T05:57:15.738Z,28.80
2018-05-25T05:57:54.732Z,31.20
2018-05-25T05:58:30.150Z,30.50
2018-05-25T05:59:05.439Z,27.50
2018-05-25T05:59:47.976Z,28.50
2018-05-25T06:00:23.302Z,25.80
2018-05-25T06:00:58.616Z,28.10
2018-05-25T06:01:33.907Z,29.60
2018-05-25T06:02:12.439Z,28.80
2018-05-25T06:02:51.729Z,30.80
2018-05-25T06:03:31.961Z,27.20
2018-05-25T06:04:07.496Z,26.20
2018-05-25T06:04:43.143Z,25.80
2018-05-25T06:05:19.673Z,29.50
2018-05-25T06:05:57.322Z,27.90
2018-05-25T06:06:32.611Z,26.40
2018-05-25T06:07:08.326Z,26.50
2018-05-25T06:07:43.634Z,28.00
2018-05-25T06:08:19.713Z,29.50
2018-05-25T06:08:55.193Z,26.70
2018-05-25T06:09:30.422Z,24.80
2018-05-25T06:10:07.844Z,28.70
2018-05-25T06:10:46.276Z,27.70
2018-05-25T06:11:21.865Z,28.10
2018-05-25T06:11:57.203Z,25.90
2018-05-25T06:12:32.700Z,25.90
2018-05-25T06:13:08.031Z,26.00
2018-05-25T06:13:43.128Z,26.00
2018-05-25T06:14:18.754Z,27.00
2018-05-25T06:14:54.151Z,27.60
2018-05-25T06:15:29.495Z,26.20
2018-05-25T06:16:05.084Z,25.20
2018-05-25T06:16:40.678Z,26.60
2018-05-25T06:17:15.905Z,27.70
2018-05-25T06:17:53.342Z,26.40
2018-05-25T06:18:29.024Z,27.80
2018-05-25T06:19:04.932Z,25.50
2018-05-25T06:19:40.442Z,26.50
2018-05-25T06:20:15.770Z,27.40
2018-05-25T06:20:51.218Z,27.80
2018-05-25T06:21:28.226Z,27.50
2018-05-25T06:22:03.647Z,25.90
2018-05-25T06:22:40.222Z,28.70
2018-05-25T06:23:15.316Z,29.50
2018-05-25T06:23:50.989Z,26.90
2018-05-25T06:24:26.301Z,26.00
2018-05-25T06:25:02.037Z,25.30
2018-05-25T06:25:38.762Z,25.70
2018-05-25T06:26:16.293Z,25.50
2018-05-25T06:26:54.298Z,24.60
2018-05-25T06:27:29.545Z,27.10
2018-05-25T06:28:04.758Z,25.40
2018-05-25T06:28:40.185Z,20.90
2018-05-25T06:29:15.479Z,26.80
2018-05-25T06:29:50.913Z,23.30
2018-05-25T06:30:26.233Z,25.00
2018-05-25T06:31:05.589Z,27.50
2018-05-25T06:31:40.878Z,26.50
2018-05-25T06:32:20.129Z,26.50
2018-05-25T06:32:55.360Z,23.40
2018-05-25T06:33:30.685Z,21.60
2018-05-25T06:34:06.124Z,21.40
2018-05-25T06:34:42.004Z,25.20
2018-05-25T06:35:17.742Z,26.00
2018-05-25T06:35:56.442Z,26.60
2018-05-25T06:36:37.454Z,24.60
2018-05-25T06:37:15.985Z,24.50
2018-05-25T06:37:51.303Z,23.30
2018-05-25T06:38:28.945Z,21.40
2018-05-25T06:39:04.348Z,20.50
2018-05-25T06:39:39.903Z,22.60
2018-05-25T06:40:15.379Z,22.50
2018-05-25T06:40:57.526Z,24.20
2018-05-25T06:41:32.856Z,22.50
2018-05-25T06:44:10.460Z,23.60
2018-05-25T06:44:45.835Z,25.70
2018-05-25T06:45:21.970Z,24.50
2018-05-25T06:46:00.484Z,22.50
2018-05-25T06:46:36.120Z,24.80
2018-05-25T06:47:11.271Z,26.20
2018-05-25T06:47:46.696Z,24.60
2018-05-25T06:48:21.873Z,25.60
2018-05-25T06:49:00.976Z,25.40
2018-05-25T06:49:39.271Z,20.90
2018-05-25T06:50:16.393Z,21.90
2018-05-25T06:50:51.797Z,21.10
2018-05-25T06:51:27.501Z,21.80
2018-05-25T06:52:03.115Z,23.60
2018-05-25T06:52:39.647Z,21.70
2018-05-25T06:53:15.040Z,21.50
2018-05-25T06:53:50.410Z,20.70
2018-05-25T06:54:25.588Z,20.70
2018-05-25T06:55:04.032Z,21.30
2018-05-25T06:58:18.290Z,19.90
2018-05-25T06:58:53.799Z,20.20
2018-05-25T06:59:29.182Z,18.80
2018-05-25T07:00:04.499Z,17.40
2018-05-25T07:00:42.241Z,17.80
2018-05-25T07:01:17.465Z,17.30
2018-05-25T07:01:56.668Z,18.30
2018-05-25T07:02:34.794Z,19.00
2018-05-25T07:03:10.185Z,20.90
2018-05-25T07:03:45.418Z,22.30
2018-05-25T07:04:21.017Z,21.40
2018-05-25T07:05:02.762Z,22.00
2018-05-25T07:05:40.695Z,20.10
2018-05-25T07:06:21.705Z,19.50
2018-05-25T07:06:57.002Z,18.30
2018-05-25T07:07:32.361Z,20.00
2018-05-25T07:08:07.773Z,19.80
2018-05-25T07:08:46.803Z,21.50
2018-05-25T07:09:22.288Z,20.00
2018-05-25T07:09:57.718Z,19.00
2018-05-25T07:10:33.058Z,18.90
2018-05-25T07:11:09.029Z,17.80
2018-05-25T07:11:47.335Z,19.90
2018-05-25T07:12:23.859Z,23.70
2018-05-25T07:12:59.435Z,21.50
2018-05-25T07:13:34.956Z,19.50
2018-05-25T07:14:10.601Z,18.90
2018-05-25T07:14:45.836Z,21.50
2018-05-25T07:15:21.298Z,21.90
2018-05-25T07:18:35.759Z,18.50
2018-05-25T07:19:11.199Z,16.30
2018-05-25T07:19:46.588Z,16.60
2018-05-25T07:20:22.213Z,17.80
2018-05-25T07:20:58.829Z,16.60
2018-05-25T07:21:37.312Z,19.00
2018-05-25T07:22:13.666Z,19.70
2018-05-25T07:22:49.377Z,17.60
2018-05-25T07:23:24.662Z,13.60
2018-05-25T07:24:00.025Z,15.40
2018-05-25T07:24:35.372Z,16.30
2018-05-25T07:25:10.683Z,15.20
2018-05-25T07:25:47.702Z,14.60
2018-05-25T07:26:23.029Z,15.40
2018-05-25T07:26:58.290Z,14.40
2018-05-25T07:27:33.893Z,16.20
2018-05-25T07:28:09.498Z,15.10
2018-05-25T07:28:45.212Z,12.20
2018-05-25T07:29:20.614Z,12.70
2018-05-25T07:29:55.977Z,17.10
2018-05-25T07:30:31.289Z,17.10
2018-05-25T07:31:06.690Z,13.50
2018-05-25T07:31:41.886Z,14.00
2018-05-25T07:32:17.319Z,14.40
2018-05-25T07:32:54.733Z,15.10
2018-05-25T07:33:30.056Z,12.80
2018-05-25T07:34:11.561Z,11.90
2018-05-25T07:34:47.130Z,11.80
2018-05-25T07:35:25.580Z,12.40
2018-05-25T07:36:04.120Z,12.50
2018-05-25T07:36:42.107Z,13.10
2018-05-25T07:37:17.675Z,14.90
2018-05-25T07:37:55.794Z,12.70
2018-05-25T07:38:31.130Z,13.70
2018-05-25T07:39:06.649Z,11.50
2018-05-25T07:39:42.166Z,13.90
2018-05-25T07:40:20.070Z,13.80
2018-05-25T07:41:00.206Z,12.40
2018-05-25T07:41:35.455Z,14.20
2018-05-25T07:42:10.820Z,14.00
2018-05-25T07:42:47.351Z,12.60
2018-05-25T07:43:24.017Z,14.20
2018-05-25T07:43:59.619Z,12.20
2018-05-25T07:44:35.175Z,12.20
2018-05-25T07:45:10.587Z,16.90
2018-05-25T07:45:46.700Z,15.10
2018-05-25T07:46:24.111Z,12.50
2018-05-25T07:47:04.641Z,12.70
2018-05-25T07:47:40.169Z,10.80
2018-05-25T07:48:15.811Z,12.80
2018-05-25T07:48:52.913Z,13.30
2018-05-25T07:49:28.441Z,12.40
2018-05-25T07:50:04.148Z,11.70
2018-05-25T07:50:40.523Z,12.60
2018-05-25T07:51:17.965Z,14.90
2018-05-25T07:51:53.214Z,13.80